sensor_id;sensor_type;location;lat;lon;timestamp;temperature;humidity
35085;SHT85;21267;51.032;6.998;2023-05-07T00:01:39;14.77;92.06
35085;SHT85;21267;51.032;6.998;2023-05-07T00:04:10;14.81;92.06
35085;SHT85;21267;51.032;6.998;2023-05-07T00:06:42;14.78;92.36
35085;SHT85;21267;51.032;6.998;2023-05-07T00:09:10;14.73;92.62
35085;SHT85;21267;51.032;6.998;2023-05-07T00:11:41;14.67;92.72
35085;SHT85;21267;51.032;6.998;2023-05-07T00:14:08;14.70;92.76
35085;SHT85;21267;51.032;6.998;2023-05-07T00:16:37;14.70;92.72
35085;SHT85;21267;51.032;6.998;2023-05-07T00:19:13;14.81;92.19
35085;SHT85;21267;51.032;6.998;2023-05-07T00:21:43;14.80;92.38
35085;SHT85;21267;51.032;6.998;2023-05-07T00:24:11;14.70;92.76
35085;SHT85;21267;51.032;6.998;2023-05-07T00:26:38;14.75;92.56
35085;SHT85;21267;51.032;6.998;2023-05-07T00:29:05;14.77;92.39
35085;SHT85;21267;51.032;6.998;2023-05-07T00:31:32;14.73;92.32
35085;SHT85;21267;51.032;6.998;2023-05-07T00:33:58;14.84;92.22
35085;SHT85;21267;51.032;6.998;2023-05-07T00:36:25;14.77;92.36
35085;SHT85;21267;51.032;6.998;2023-05-07T00:38:53;14.80;92.27
35085;SHT85;21267;51.032;6.998;2023-05-07T00:41:22;14.73;92.53
35085;SHT85;21267;51.032;6.998;2023-05-07T00:43:49;14.74;92.47
35085;SHT85;21267;51.032;6.998;2023-05-07T00:46:20;14.74;92.44
35085;SHT85;21267;51.032;6.998;2023-05-07T00:48:48;14.74;92.32
35085;SHT85;21267;51.032;6.998;2023-05-07T00:51:16;14.66;92.37
35085;SHT85;21267;51.032;6.998;2023-05-07T00:53:45;14.66;92.82
35085;SHT85;21267;51.032;6.998;2023-05-07T00:56:12;14.63;92.62
35085;SHT85;21267;51.032;6.998;2023-05-07T00:58:40;14.64;92.62
35085;SHT85;21267;51.032;6.998;2023-05-07T01:01:07;14.59;92.58
35085;SHT85;21267;51.032;6.998;2023-05-07T01:03:34;14.53;92.68
35085;SHT85;21267;51.032;6.998;2023-05-07T01:06:02;14.49;92.98
35085;SHT85;21267;51.032;6.998;2023-05-07T01:08:31;14.49;92.70
35085;SHT85;21267;51.032;6.998;2023-05-07T01:10:59;14.49;92.55
35085;SHT85;21267;51.032;6.998;2023-05-07T01:13:26;14.44;92.65
35085;SHT85;21267;51.032;6.998;2023-05-07T01:15:53;14.41;92.61
35085;SHT85;21267;51.032;6.998;2023-05-07T01:18:20;14.47;92.55
35085;SHT85;21267;51.032;6.998;2023-05-07T01:20:48;14.44;93.13
35085;SHT85;21267;51.032;6.998;2023-05-07T01:23:15;14.32;93.47
35085;SHT85;21267;51.032;6.998;2023-05-07T01:25:43;14.32;93.66
35085;SHT85;21267;51.032;6.998;2023-05-07T01:28:16;14.26;93.52
35085;SHT85;21267;51.032;6.998;2023-05-07T01:30:49;14.30;93.64
35085;SHT85;21267;51.032;6.998;2023-05-07T01:33:19;14.34;93.10
35085;SHT85;21267;51.032;6.998;2023-05-07T01:35:49;14.49;92.64
35085;SHT85;21267;51.032;6.998;2023-05-07T01:38:18;14.38;92.56
35085;SHT85;21267;51.032;6.998;2023-05-07T01:40:45;14.46;92.04
35085;SHT85;21267;51.032;6.998;2023-05-07T01:43:12;14.49;92.00
35085;SHT85;21267;51.032;6.998;2023-05-07T01:45:42;14.49;91.71
35085;SHT85;21267;51.032;6.998;2023-05-07T01:48:10;14.53;91.67
35085;SHT85;21267;51.032;6.998;2023-05-07T01:50:38;14.57;91.45
35085;SHT85;21267;51.032;6.998;2023-05-07T01:53:05;14.57;91.26
35085;SHT85;21267;51.032;6.998;2023-05-07T01:55:32;14.56;91.44
35085;SHT85;21267;51.032;6.998;2023-05-07T01:57:59;14.59;91.15
35085;SHT85;21267;51.032;6.998;2023-05-07T02:00:27;14.60;91.37
35085;SHT85;21267;51.032;6.998;2023-05-07T02:02:54;14.64;91.25
35085;SHT85;21267;51.032;6.998;2023-05-07T02:05:21;14.54;91.64
35085;SHT85;21267;51.032;6.998;2023-05-07T02:07:48;14.56;92.02
35085;SHT85;21267;51.032;6.998;2023-05-07T02:10:15;14.44;92.07
35085;SHT85;21267;51.032;6.998;2023-05-07T02:12:42;14.29;92.78
35085;SHT85;21267;51.032;6.998;2023-05-07T02:15:09;14.15;93.38
35085;SHT85;21267;51.032;6.998;2023-05-07T02:18:01;14.06;93.85
35085;SHT85;21267;51.032;6.998;2023-05-07T02:20:30;13.99;94.06
35085;SHT85;21267;51.032;6.998;2023-05-07T02:22:57;14.04;94.06
35085;SHT85;21267;51.032;6.998;2023-05-07T02:25:24;14.04;93.91
35085;SHT85;21267;51.032;6.998;2023-05-07T02:27:51;14.04;93.98
35085;SHT85;21267;51.032;6.998;2023-05-07T02:30:18;14.08;93.60
35085;SHT85;21267;51.032;6.998;2023-05-07T02:32:45;13.95;93.78
35085;SHT85;21267;51.032;6.998;2023-05-07T02:35:12;14.06;93.38
35085;SHT85;21267;51.032;6.998;2023-05-07T02:37:39;13.96;93.48
35085;SHT85;21267;51.032;6.998;2023-05-07T02:40:07;13.92;93.43
35085;SHT85;21267;51.032;6.998;2023-05-07T02:42:35;13.81;93.73
35085;SHT85;21267;51.032;6.998;2023-05-07T02:45:02;13.85;93.64
35085;SHT85;21267;51.032;6.998;2023-05-07T02:47:30;13.84;93.50
35085;SHT85;21267;51.032;6.998;2023-05-07T02:50:07;13.88;93.66
35085;SHT85;21267;51.032;6.998;2023-05-07T02:52:34;13.82;93.51
35085;SHT85;21267;51.032;6.998;2023-05-07T02:55:03;13.77;93.94
35085;SHT85;21267;51.032;6.998;2023-05-07T02:57:30;13.81;93.93
35085;SHT85;21267;51.032;6.998;2023-05-07T02:59:58;13.79;93.78
35085;SHT85;21267;51.032;6.998;2023-05-07T03:02:28;13.58;94.12
35085;SHT85;21267;51.032;6.998;2023-05-07T03:04:55;13.57;94.37
35085;SHT85;21267;51.032;6.998;2023-05-07T03:07:22;13.51;94.41
35085;SHT85;21267;51.032;6.998;2023-05-07T03:09:49;13.43;94.69
35085;SHT85;21267;51.032;6.998;2023-05-07T03:12:16;13.41;94.76
35085;SHT85;21267;51.032;6.998;2023-05-07T03:14:51;13.51;94.60
35085;SHT85;21267;51.032;6.998;2023-05-07T03:17:18;13.55;94.41
35085;SHT85;21267;51.032;6.998;2023-05-07T03:19:48;13.50;94.50
35085;SHT85;21267;51.032;6.998;2023-05-07T03:22:19;13.65;94.11
35085;SHT85;21267;51.032;6.998;2023-05-07T03:24:52;13.62;93.96
35085;SHT85;21267;51.032;6.998;2023-05-07T03:27:19;13.50;94.43
35085;SHT85;21267;51.032;6.998;2023-05-07T03:29:45;13.53;94.29
35085;SHT85;21267;51.032;6.998;2023-05-07T03:32:12;13.43;94.42
35085;SHT85;21267;51.032;6.998;2023-05-07T03:34:39;13.20;94.85
35085;SHT85;21267;51.032;6.998;2023-05-07T03:37:06;13.12;95.05
35085;SHT85;21267;51.032;6.998;2023-05-07T03:39:33;13.06;95.35
35085;SHT85;21267;51.032;6.998;2023-05-07T03:42:00;13.07;95.54
35085;SHT85;21267;51.032;6.998;2023-05-07T03:44:27;13.19;95.36
35085;SHT85;21267;51.032;6.998;2023-05-07T03:46:54;13.20;95.04
35085;SHT85;21267;51.032;6.998;2023-05-07T03:49:21;13.15;95.10
35085;SHT85;21267;51.032;6.998;2023-05-07T03:51:48;13.03;95.30
35085;SHT85;21267;51.032;6.998;2023-05-07T03:54:15;12.99;95.42
35085;SHT85;21267;51.032;6.998;2023-05-07T03:56:42;12.85;95.81
35085;SHT85;21267;51.032;6.998;2023-05-07T03:59:08;12.86;96.08
35085;SHT85;21267;51.032;6.998;2023-05-07T04:01:35;12.86;96.06
35085;SHT85;21267;51.032;6.998;2023-05-07T04:04:02;12.90;95.95
35085;SHT85;21267;51.032;6.998;2023-05-07T04:06:30;12.92;95.94
35085;SHT85;21267;51.032;6.998;2023-05-07T04:08:57;13.03;95.59
35085;SHT85;21267;51.032;6.998;2023-05-07T04:11:27;13.07;95.56
35085;SHT85;21267;51.032;6.998;2023-05-07T04:13:54;13.15;95.09
35085;SHT85;21267;51.032;6.998;2023-05-07T04:16:20;13.19;94.99
35085;SHT85;21267;51.032;6.998;2023-05-07T04:18:47;13.20;95.12
35085;SHT85;21267;51.032;6.998;2023-05-07T04:21:18;13.22;94.99
35085;SHT85;21267;51.032;6.998;2023-05-07T04:23:48;13.30;94.65
35085;SHT85;21267;51.032;6.998;2023-05-07T04:26:15;13.33;94.23
35085;SHT85;21267;51.032;6.998;2023-05-07T04:28:42;13.27;94.28
35085;SHT85;21267;51.032;6.998;2023-05-07T04:31:09;13.23;94.56
35085;SHT85;21267;51.032;6.998;2023-05-07T04:33:36;13.46;94.31
35085;SHT85;21267;51.032;6.998;2023-05-07T04:36:03;13.50;93.79
35085;SHT85;21267;51.032;6.998;2023-05-07T04:38:32;13.59;93.66
35085;SHT85;21267;51.032;6.998;2023-05-07T04:41:09;13.47;93.83
35085;SHT85;21267;51.032;6.998;2023-05-07T04:43:36;13.43;94.16
35085;SHT85;21267;51.032;6.998;2023-05-07T04:46:02;13.44;94.29
35085;SHT85;21267;51.032;6.998;2023-05-07T04:48:31;13.57;94.41
35085;SHT85;21267;51.032;6.998;2023-05-07T04:51:00;13.58;93.99
35085;SHT85;21267;51.032;6.998;2023-05-07T04:53:27;13.64;93.72
35085;SHT85;21267;51.032;6.998;2023-05-07T04:55:56;13.61;93.58
35085;SHT85;21267;51.032;6.998;2023-05-07T04:58:26;13.69;93.45
35085;SHT85;21267;51.032;6.998;2023-05-07T05:00:55;13.71;93.41
35085;SHT85;21267;51.032;6.998;2023-05-07T05:03:22;13.79;93.05
35085;SHT85;21267;51.032;6.998;2023-05-07T05:05:51;13.85;92.99
35085;SHT85;21267;51.032;6.998;2023-05-07T05:08:18;13.91;92.81
35085;SHT85;21267;51.032;6.998;2023-05-07T05:10:45;13.95;92.18
35085;SHT85;21267;51.032;6.998;2023-05-07T05:13:12;14.02;91.77
35085;SHT85;21267;51.032;6.998;2023-05-07T05:15:42;14.09;91.35
35085;SHT85;21267;51.032;6.998;2023-05-07T05:18:09;14.26;91.03
35085;SHT85;21267;51.032;6.998;2023-05-07T05:20:35;14.41;90.45
35085;SHT85;21267;51.032;6.998;2023-05-07T05:23:02;14.53;89.75
35085;SHT85;21267;51.032;6.998;2023-05-07T05:25:29;14.52;90.08
35085;SHT85;21267;51.032;6.998;2023-05-07T05:27:56;14.61;89.91
35085;SHT85;21267;51.032;6.998;2023-05-07T05:30:23;14.70;89.73
35085;SHT85;21267;51.032;6.998;2023-05-07T05:32:50;14.78;89.19
35085;SHT85;21267;51.032;6.998;2023-05-07T05:35:16;14.77;88.88
35085;SHT85;21267;51.032;6.998;2023-05-07T05:37:43;14.77;89.09
35085;SHT85;21267;51.032;6.998;2023-05-07T05:40:10;14.85;88.77
35085;SHT85;21267;51.032;6.998;2023-05-07T05:42:40;14.88;89.04
35085;SHT85;21267;51.032;6.998;2023-05-07T05:45:08;15.05;88.31
35085;SHT85;21267;51.032;6.998;2023-05-07T05:47:40;14.99;87.96
35085;SHT85;21267;51.032;6.998;2023-05-07T05:52:51;15.21;87.58
35085;SHT85;21267;51.032;6.998;2023-05-07T05:55:37;15.28;87.52
35085;SHT85;21267;51.032;6.998;2023-05-07T05:58:18;15.24;87.73
35085;SHT85;21267;51.032;6.998;2023-05-07T06:01:01;15.21;87.44
35085;SHT85;21267;51.032;6.998;2023-05-07T06:03:31;15.39;87.03
35085;SHT85;21267;51.032;6.998;2023-05-07T06:06:02;15.52;86.66
35085;SHT85;21267;51.032;6.998;2023-05-07T06:08:42;15.35;86.86
35085;SHT85;21267;51.032;6.998;2023-05-07T06:11:10;15.33;86.52
35085;SHT85;21267;51.032;6.998;2023-05-07T06:13:36;15.63;86.08
35085;SHT85;21267;51.032;6.998;2023-05-07T06:16:11;15.83;85.44
35085;SHT85;21267;51.032;6.998;2023-05-07T06:18:39;15.76;85.13
35085;SHT85;21267;51.032;6.998;2023-05-07T06:21:05;16.01;84.89
35085;SHT85;21267;51.032;6.998;2023-05-07T06:23:37;16.07;84.79
35085;SHT85;21267;51.032;6.998;2023-05-07T06:26:06;16.10;83.75
35085;SHT85;21267;51.032;6.998;2023-05-07T06:28:38;16.22;83.91
35085;SHT85;21267;51.032;6.998;2023-05-07T06:33:39;16.45;82.94
35085;SHT85;21267;51.032;6.998;2023-05-07T06:36:09;16.45;82.38
35085;SHT85;21267;51.032;6.998;2023-05-07T06:38:37;16.32;82.68
35085;SHT85;21267;51.032;6.998;2023-05-07T06:41:05;16.32;83.00
35085;SHT85;21267;51.032;6.998;2023-05-07T06:43:33;16.49;83.27
35085;SHT85;21267;51.032;6.998;2023-05-07T06:46:00;16.75;82.30
35085;SHT85;21267;51.032;6.998;2023-05-07T06:48:26;16.84;81.17
35085;SHT85;21267;51.032;6.998;2023-05-07T06:50:53;16.94;80.89
35085;SHT85;21267;51.032;6.998;2023-05-07T06:53:22;17.10;80.83
35085;SHT85;21267;51.032;6.998;2023-05-07T06:55:48;17.20;80.86
35085;SHT85;21267;51.032;6.998;2023-05-07T06:58:18;17.31;80.38
35085;SHT85;21267;51.032;6.998;2023-05-07T07:00:45;17.18;79.87
35085;SHT85;21267;51.032;6.998;2023-05-07T07:03:12;17.38;79.87
35085;SHT85;21267;51.032;6.998;2023-05-07T07:05:40;17.50;78.93
35085;SHT85;21267;51.032;6.998;2023-05-07T07:08:08;17.63;78.95
35085;SHT85;21267;51.032;6.998;2023-05-07T07:10:35;17.82;78.55
35085;SHT85;21267;51.032;6.998;2023-05-07T07:13:01;17.86;77.70
35085;SHT85;21267;51.032;6.998;2023-05-07T07:15:28;17.93;77.90
35085;SHT85;21267;51.032;6.998;2023-05-07T07:17:55;18.19;77.21
35085;SHT85;21267;51.032;6.998;2023-05-07T07:20:22;18.48;76.83
35085;SHT85;21267;51.032;6.998;2023-05-07T07:22:49;18.30;76.10
35085;SHT85;21267;51.032;6.998;2023-05-07T07:25:15;18.41;76.11
35085;SHT85;21267;51.032;6.998;2023-05-07T07:27:42;18.47;75.58
35085;SHT85;21267;51.032;6.998;2023-05-07T07:30:10;18.61;75.60
35085;SHT85;21267;51.032;6.998;2023-05-07T07:32:37;18.71;75.07
35085;SHT85;21267;51.032;6.998;2023-05-07T07:35:04;18.29;75.08
35085;SHT85;21267;51.032;6.998;2023-05-07T07:37:31;18.54;75.30
35085;SHT85;21267;51.032;6.998;2023-05-07T07:39:58;18.45;74.71
35085;SHT85;21267;51.032;6.998;2023-05-07T07:42:25;18.64;74.54
35085;SHT85;21267;51.032;6.998;2023-05-07T07:44:51;18.94;73.97
35085;SHT85;21267;51.032;6.998;2023-05-07T07:47:21;19.10;73.15
35085;SHT85;21267;51.032;6.998;2023-05-07T07:49:48;19.05;72.99
35085;SHT85;21267;51.032;6.998;2023-05-07T07:52:15;19.02;72.89
35085;SHT85;21267;51.032;6.998;2023-05-07T07:54:42;19.23;72.85
35085;SHT85;21267;51.032;6.998;2023-05-07T07:57:09;19.40;72.15
35085;SHT85;21267;51.032;6.998;2023-05-07T07:59:36;19.60;72.21
35085;SHT85;21267;51.032;6.998;2023-05-07T08:02:03;19.38;72.54
35085;SHT85;21267;51.032;6.998;2023-05-07T08:04:30;19.51;72.54
35085;SHT85;21267;51.032;6.998;2023-05-07T08:06:59;19.80;72.43
35085;SHT85;21267;51.032;6.998;2023-05-07T08:09:26;19.81;71.68
35085;SHT85;21267;51.032;6.998;2023-05-07T08:11:53;19.60;72.22
35085;SHT85;21267;51.032;6.998;2023-05-07T08:14:20;19.56;72.44
35085;SHT85;21267;51.032;6.998;2023-05-07T08:16:47;19.66;72.25
35085;SHT85;21267;51.032;6.998;2023-05-07T08:19:14;19.75;72.42
35085;SHT85;21267;51.032;6.998;2023-05-07T08:21:41;19.68;72.97
35085;SHT85;21267;51.032;6.998;2023-05-07T08:24:08;19.73;72.22
35085;SHT85;21267;51.032;6.998;2023-05-07T08:26:38;19.61;72.60
35085;SHT85;21267;51.032;6.998;2023-05-07T08:29:06;19.66;72.93
35085;SHT85;21267;51.032;6.998;2023-05-07T08:31:33;19.92;72.38
35085;SHT85;21267;51.032;6.998;2023-05-07T08:34:00;20.05;72.80
35085;SHT85;21267;51.032;6.998;2023-05-07T08:36:27;20.04;72.51
35085;SHT85;21267;51.032;6.998;2023-05-07T08:38:55;20.21;72.05
35085;SHT85;21267;51.032;6.998;2023-05-07T08:41:21;20.36;71.93
35085;SHT85;21267;51.032;6.998;2023-05-07T08:43:49;20.57;71.05
35085;SHT85;21267;51.032;6.998;2023-05-07T08:46:21;21.10;70.49
35085;SHT85;21267;51.032;6.998;2023-05-07T08:48:51;21.03;70.50
35085;SHT85;21267;51.032;6.998;2023-05-07T08:51:20;21.51;68.62
35085;SHT85;21267;51.032;6.998;2023-05-07T08:53:48;21.46;69.33
35085;SHT85;21267;51.032;6.998;2023-05-07T08:56:16;21.79;68.06
35085;SHT85;21267;51.032;6.998;2023-05-07T08:58:46;21.54;68.57
35085;SHT85;21267;51.032;6.998;2023-05-07T09:01:14;21.42;68.22
35085;SHT85;21267;51.032;6.998;2023-05-07T09:03:44;22.09;66.81
35085;SHT85;21267;51.032;6.998;2023-05-07T09:06:12;22.00;66.87
35085;SHT85;21267;51.032;6.998;2023-05-07T09:08:39;21.92;67.17
35085;SHT85;21267;51.032;6.998;2023-05-07T09:11:06;21.99;66.42
35085;SHT85;21267;51.032;6.998;2023-05-07T09:13:33;21.92;67.06
35085;SHT85;21267;51.032;6.998;2023-05-07T09:16:10;21.62;66.66
35085;SHT85;21267;51.032;6.998;2023-05-07T09:18:43;21.61;67.21
35085;SHT85;21267;51.032;6.998;2023-05-07T09:21:14;21.13;68.14
35085;SHT85;21267;51.032;6.998;2023-05-07T09:23:42;21.79;67.31
35085;SHT85;21267;51.032;6.998;2023-05-07T09:26:09;22.17;66.74
35085;SHT85;21267;51.032;6.998;2023-05-07T09:28:41;22.37;66.23
35085;SHT85;21267;51.032;6.998;2023-05-07T09:31:09;22.29;66.80
35085;SHT85;21267;51.032;6.998;2023-05-07T09:33:37;22.87;64.91
35085;SHT85;21267;51.032;6.998;2023-05-07T09:36:06;22.59;65.57
35085;SHT85;21267;51.032;6.998;2023-05-07T09:38:34;22.80;63.78
35085;SHT85;21267;51.032;6.998;2023-05-07T09:41:06;23.35;63.05
35085;SHT85;21267;51.032;6.998;2023-05-07T09:43:38;23.56;62.71
35085;SHT85;21267;51.032;6.998;2023-05-07T09:46:15;24.31;61.22
35085;SHT85;21267;51.032;6.998;2023-05-07T09:48:44;24.86;60.12
35085;SHT85;21267;51.032;6.998;2023-05-07T09:51:43;24.25;59.59
35085;SHT85;21267;51.032;6.998;2023-05-07T09:54:12;23.87;60.94
35085;SHT85;21267;51.032;6.998;2023-05-07T09:56:39;24.11;60.77
35085;SHT85;21267;51.032;6.998;2023-05-07T09:59:12;23.73;61.21
35085;SHT85;21267;51.032;6.998;2023-05-07T10:01:41;23.16;62.38
35085;SHT85;21267;51.032;6.998;2023-05-07T10:04:10;23.22;62.39
35085;SHT85;21267;51.032;6.998;2023-05-07T10:06:37;23.81;61.13
35085;SHT85;21267;51.032;6.998;2023-05-07T10:09:05;24.37;59.89
35085;SHT85;21267;51.032;6.998;2023-05-07T10:11:35;24.68;58.62
35085;SHT85;21267;51.032;6.998;2023-05-07T10:14:04;25.19;58.43
35085;SHT85;21267;51.032;6.998;2023-05-07T10:16:34;25.40;58.03
35085;SHT85;21267;51.032;6.998;2023-05-07T10:19:05;25.44;57.65
35085;SHT85;21267;51.032;6.998;2023-05-07T10:21:37;26.22;55.83
35085;SHT85;21267;51.032;6.998;2023-05-07T10:24:29;26.49;54.22
35085;SHT85;21267;51.032;6.998;2023-05-07T10:26:59;26.71;54.17
35085;SHT85;21267;51.032;6.998;2023-05-07T10:34:28;26.67;52.79
35085;SHT85;21267;51.032;6.998;2023-05-07T10:36:56;26.15;53.80
35085;SHT85;21267;51.032;6.998;2023-05-07T10:39:24;25.85;54.69
35085;SHT85;21267;51.032;6.998;2023-05-07T10:41:51;25.04;56.55
35085;SHT85;21267;51.032;6.998;2023-05-07T10:44:28;24.73;56.39
35085;SHT85;21267;51.032;6.998;2023-05-07T10:47:16;25.38;52.51
35085;SHT85;21267;51.032;6.998;2023-05-07T10:52:18;24.61;53.92
35085;SHT85;21267;51.032;6.998;2023-05-07T10:54:46;25.27;53.26
35085;SHT85;21267;51.032;6.998;2023-05-07T10:57:34;26.54;50.54
35085;SHT85;21267;51.032;6.998;2023-05-07T11:05:31;25.67;51.82
35085;SHT85;21267;51.032;6.998;2023-05-07T11:08:04;25.22;53.07
35085;SHT85;21267;51.032;6.998;2023-05-07T11:13:43;25.71;51.87
35085;SHT85;21267;51.032;6.998;2023-05-07T11:16:22;25.67;51.74
35085;SHT85;21267;51.032;6.998;2023-05-07T11:18:54;25.73;52.63
35085;SHT85;21267;51.032;6.998;2023-05-07T11:21:41;25.75;52.00
35085;SHT85;21267;51.032;6.998;2023-05-07T11:24:11;24.86;53.24
35085;SHT85;21267;51.032;6.998;2023-05-07T11:26:48;24.59;52.85
35085;SHT85;21267;51.032;6.998;2023-05-07T11:29:20;25.36;52.04
35085;SHT85;21267;51.032;6.998;2023-05-07T11:31:53;24.57;53.08
35085;SHT85;21267;51.032;6.998;2023-05-07T11:34:25;24.32;55.03
35085;SHT85;21267;51.032;6.998;2023-05-07T11:36:52;24.97;53.48
35085;SHT85;21267;51.032;6.998;2023-05-07T11:39:29;24.79;52.95
35085;SHT85;21267;51.032;6.998;2023-05-07T11:41:57;25.15;52.35
35085;SHT85;21267;51.032;6.998;2023-05-07T11:44:24;24.73;53.65
35085;SHT85;21267;51.032;6.998;2023-05-07T11:46:51;25.13;52.78
35085;SHT85;21267;51.032;6.998;2023-05-07T11:49:18;24.93;52.79
35085;SHT85;21267;51.032;6.998;2023-05-07T11:51:45;24.58;54.24
35085;SHT85;21267;51.032;6.998;2023-05-07T11:54:15;25.45;53.31
35085;SHT85;21267;51.032;6.998;2023-05-07T11:56:44;24.53;54.56
35085;SHT85;21267;51.032;6.998;2023-05-07T11:59:11;23.93;54.31
35085;SHT85;21267;51.032;6.998;2023-05-07T12:01:38;24.68;52.62
35085;SHT85;21267;51.032;6.998;2023-05-07T12:04:05;24.16;52.74
35085;SHT85;21267;51.032;6.998;2023-05-07T12:06:36;24.97;52.04
35085;SHT85;21267;51.032;6.998;2023-05-07T12:09:02;24.65;52.49
35085;SHT85;21267;51.032;6.998;2023-05-07T12:11:30;24.87;52.05
35085;SHT85;21267;51.032;6.998;2023-05-07T12:13:57;25.60;50.12
35085;SHT85;21267;51.032;6.998;2023-05-07T12:16:25;26.02;49.40
35085;SHT85;21267;51.032;6.998;2023-05-07T12:18:53;25.36;50.80
35085;SHT85;21267;51.032;6.998;2023-05-07T12:21:22;24.44;52.39
35085;SHT85;21267;51.032;6.998;2023-05-07T12:23:49;24.42;52.69
35085;SHT85;21267;51.032;6.998;2023-05-07T12:26:19;23.96;53.64
35085;SHT85;21267;51.032;6.998;2023-05-07T12:28:47;24.32;52.81
35085;SHT85;21267;51.032;6.998;2023-05-07T12:31:14;23.87;54.35
35085;SHT85;21267;51.032;6.998;2023-05-07T12:33:43;23.94;54.00
35085;SHT85;21267;51.032;6.998;2023-05-07T12:36:11;24.00;54.54
35085;SHT85;21267;51.032;6.998;2023-05-07T12:38:38;24.35;53.91
35085;SHT85;21267;51.032;6.998;2023-05-07T12:41:08;24.32;53.47
35085;SHT85;21267;51.032;6.998;2023-05-07T12:43:35;23.91;54.62
35085;SHT85;21267;51.032;6.998;2023-05-07T12:46:07;23.69;54.24
35085;SHT85;21267;51.032;6.998;2023-05-07T12:48:38;23.87;54.08
35085;SHT85;21267;51.032;6.998;2023-05-07T12:51:12;23.39;54.92
35085;SHT85;21267;51.032;6.998;2023-05-07T12:53:42;24.00;54.79
35085;SHT85;21267;51.032;6.998;2023-05-07T12:56:09;23.84;55.02
35085;SHT85;21267;51.032;6.998;2023-05-07T12:58:36;23.73;54.77
35085;SHT85;21267;51.032;6.998;2023-05-07T13:01:07;23.81;54.75
35085;SHT85;21267;51.032;6.998;2023-05-07T13:03:37;23.77;54.64
35085;SHT85;21267;51.032;6.998;2023-05-07T13:06:07;23.69;54.44
35085;SHT85;21267;51.032;6.998;2023-05-07T13:08:38;23.42;54.95
35085;SHT85;21267;51.032;6.998;2023-05-07T13:11:14;23.19;55.58
35085;SHT85;21267;51.032;6.998;2023-05-07T13:13:41;23.19;56.09
35085;SHT85;21267;51.032;6.998;2023-05-07T13:16:10;23.14;57.50
35085;SHT85;21267;51.032;6.998;2023-05-07T13:18:39;23.14;56.37
35085;SHT85;21267;51.032;6.998;2023-05-07T13:21:07;23.25;55.79
35085;SHT85;21267;51.032;6.998;2023-05-07T13:23:34;23.39;56.52
35085;SHT85;21267;51.032;6.998;2023-05-07T13:26:01;23.40;56.81
35085;SHT85;21267;51.032;6.998;2023-05-07T13:28:36;23.36;57.24
35085;SHT85;21267;51.032;6.998;2023-05-07T13:31:03;23.56;57.17
35085;SHT85;21267;51.032;6.998;2023-05-07T13:33:30;23.49;56.68
35085;SHT85;21267;51.032;6.998;2023-05-07T13:35:57;23.39;56.53
35085;SHT85;21267;51.032;6.998;2023-05-07T13:38:24;23.43;56.88
35085;SHT85;21267;51.032;6.998;2023-05-07T13:40:51;23.22;57.84
35085;SHT85;21267;51.032;6.998;2023-05-07T13:43:18;23.21;58.24
35085;SHT85;21267;51.032;6.998;2023-05-07T13:45:45;22.98;58.45
35085;SHT85;21267;51.032;6.998;2023-05-07T13:48:12;23.08;57.24
35085;SHT85;21267;51.032;6.998;2023-05-07T13:50:39;23.22;58.37
35085;SHT85;21267;51.032;6.998;2023-05-07T13:53:07;22.82;58.62
35085;SHT85;21267;51.032;6.998;2023-05-07T13:55:34;22.78;59.41
35085;SHT85;21267;51.032;6.998;2023-05-07T13:58:04;22.45;61.81
35085;SHT85;21267;51.032;6.998;2023-05-07T14:00:33;21.56;66.44
35085;SHT85;21267;51.032;6.998;2023-05-07T14:03:00;20.77;71.12
35085;SHT85;21267;51.032;6.998;2023-05-07T14:05:35;20.63;70.30
35085;SHT85;21267;51.032;6.998;2023-05-07T14:08:02;20.77;69.00
35085;SHT85;21267;51.032;6.998;2023-05-07T14:10:31;20.98;70.84
35085;SHT85;21267;51.032;6.998;2023-05-07T14:12:58;21.00;70.31
35085;SHT85;21267;51.032;6.998;2023-05-07T14:15:25;21.23;71.37
35085;SHT85;21267;51.032;6.998;2023-05-07T14:17:52;21.42;73.79
35085;SHT85;21267;51.032;6.998;2023-05-07T14:20:20;21.37;75.57
35085;SHT85;21267;51.032;6.998;2023-05-07T14:22:47;21.54;71.06
35085;SHT85;21267;51.032;6.998;2023-05-07T14:25:14;21.52;71.43
35085;SHT85;21267;51.032;6.998;2023-05-07T14:27:41;21.76;70.04
35085;SHT85;21267;51.032;6.998;2023-05-07T14:30:09;21.75;72.44
35085;SHT85;21267;51.032;6.998;2023-05-07T14:32:36;21.76;72.45
35085;SHT85;21267;51.032;6.998;2023-05-07T14:35:03;21.88;69.11
35085;SHT85;21267;51.032;6.998;2023-05-07T14:37:30;21.83;69.82
35085;SHT85;21267;51.032;6.998;2023-05-07T14:40:00;21.82;68.01
35085;SHT85;21267;51.032;6.998;2023-05-07T14:42:31;21.58;70.30
35085;SHT85;21267;51.032;6.998;2023-05-07T14:45:01;20.72;74.56
35085;SHT85;21267;51.032;6.998;2023-05-07T14:47:29;20.45;75.70
35085;SHT85;21267;51.032;6.998;2023-05-07T14:49:56;20.28;74.81
35085;SHT85;21267;51.032;6.998;2023-05-07T14:52:24;20.19;73.90
35085;SHT85;21267;51.032;6.998;2023-05-07T14:54:51;20.28;73.66
35085;SHT85;21267;51.032;6.998;2023-05-07T14:57:18;20.21;73.86
35085;SHT85;21267;51.032;6.998;2023-05-07T14:59:48;20.56;73.75
35085;SHT85;21267;51.032;6.998;2023-05-07T15:02:15;20.59;72.22
35085;SHT85;21267;51.032;6.998;2023-05-07T15:04:42;20.80;71.52
35085;SHT85;21267;51.032;6.998;2023-05-07T15:07:15;21.03;70.93
35085;SHT85;21267;51.032;6.998;2023-05-07T15:09:43;21.00;70.52
35085;SHT85;21267;51.032;6.998;2023-05-07T15:12:13;21.04;71.75
35085;SHT85;21267;51.032;6.998;2023-05-07T15:14:41;20.83;72.56
35085;SHT85;21267;51.032;6.998;2023-05-07T15:17:11;20.94;72.57
35085;SHT85;21267;51.032;6.998;2023-05-07T15:19:38;20.81;72.83
35085;SHT85;21267;51.032;6.998;2023-05-07T15:22:05;20.63;73.39
35085;SHT85;21267;51.032;6.998;2023-05-07T15:24:38;20.73;73.81
35085;SHT85;21267;51.032;6.998;2023-05-07T15:27:05;20.77;73.77
35085;SHT85;21267;51.032;6.998;2023-05-07T15:29:32;20.52;74.69
35085;SHT85;21267;51.032;6.998;2023-05-07T15:31:59;20.73;74.75
35085;SHT85;21267;51.032;6.998;2023-05-07T15:34:26;20.76;74.50
35085;SHT85;21267;51.032;6.998;2023-05-07T15:36:54;21.08;74.15
35085;SHT85;21267;51.032;6.998;2023-05-07T15:39:27;21.03;74.44
35085;SHT85;21267;51.032;6.998;2023-05-07T15:41:54;20.72;75.70
35085;SHT85;21267;51.032;6.998;2023-05-07T15:44:21;20.66;76.68
35085;SHT85;21267;51.032;6.998;2023-05-07T15:46:48;20.72;76.72
35085;SHT85;21267;51.032;6.998;2023-05-07T15:49:16;21.10;75.86
35085;SHT85;21267;51.032;6.998;2023-05-07T15:51:42;20.50;77.60
35085;SHT85;21267;51.032;6.998;2023-05-07T15:54:10;20.86;77.10
35085;SHT85;21267;51.032;6.998;2023-05-07T15:56:37;20.81;77.58
35085;SHT85;21267;51.032;6.998;2023-05-07T15:59:04;20.24;78.70
35085;SHT85;21267;51.032;6.998;2023-05-07T16:01:31;20.79;77.74